Terminal Aerodrome Forecast
Issued by NWS

Home | Current Version | Previous Version | Text Only | Print | Product List | Glossary On
Versions: 1 2 3 4 5 6 7 8 9 10 11 12 13 14 15 16 17 18 19 20 21
000
FTUS45 KRIW 011100
TAFPNA
TAF
KPNA 011124Z 0112/0212 29006KT P6SM SCT090 BKN110
     FM011500 VRB05KT P6SM SCT110 SCT250
     FM011900 VRB05KT P6SM SCT090
     FM012100 VRB10G18KT P6SM VCTS BKN090CB
     FM020200 30006KT P6SM VCSH BKN100
     FM020500 29006KT P6SM SCT110
      AMD LTD TO CLD VIS AND WIND=

USA.gov is the U.S. government's official web portal to all federal, state and local government web resources and services.